Time;durP1;ratioP1;P1;durP2;ratioP2;P2;SDS_P1;SDS_P2;PMS_P1;PMS_P2;Temp;Humidity;BMP_temperature;BMP_pressure;BME280_temperature;BME280_humidity;BME280_pressure;Samples;Min_cycle;Max_cycle;Signal;HPM_P1;HPM_P2
2023/05/18 00:00:09;;;;;;;21.65;9.10;;;;;;;14.38;100.00;99503.97;5068216;28;20035;-19
2023/05/18 00:02:35;;;;;;;13.35;9.15;;;;;;;14.27;100.00;99491.56;5068448;28;20032;-19
2023/05/18 00:05:00;;;;;;;14.15;9.10;;;;;;;14.25;100.00;99499.06;5068262;28;20396;-19
2023/05/18 00:07:28;;;;;;;19.75;9.80;;;;;;;14.12;100.00;99502.16;5068112;28;20028;-20
2023/05/18 00:09:54;;;;;;;81.72;12.52;;;;;;;14.01;100.00;99488.66;5067952;28;20032;-21
2023/05/18 00:12:19;;;;;;;50.83;10.88;;;;;;;13.86;100.00;99480.50;5068090;28;20119;-19
2023/05/18 00:14:45;;;;;;;74.70;10.75;;;;;;;13.74;100.00;99485.22;5067989;28;20059;-19
2023/05/18 00:17:10;;;;;;;32.42;10.48;;;;;;;13.75;100.00;99489.50;5067833;28;20054;-19
2023/05/18 00:19:36;;;;;;;30.40;9.63;;;;;;;13.83;100.00;99492.56;5067712;28;20033;-19
2023/05/18 00:22:02;;;;;;;14.65;9.50;;;;;;;13.84;100.00;99496.03;5067658;28;20687;-22
2023/05/18 00:24:27;;;;;;;15.80;10.27;;;;;;;13.90;100.00;99480.81;5067962;28;20563;-19
2023/05/18 00:26:53;;;;;;;32.88;10.70;;;;;;;13.85;100.00;99469.00;5067720;28;20047;-19
2023/05/18 00:29:18;;;;;;;17.20;8.85;;;;;;;13.93;100.00;99486.47;5067907;28;20733;-19
2023/05/18 00:31:44;;;;;;;13.20;8.52;;;;;;;13.73;100.00;99486.28;5067536;28;20032;-19
2023/05/18 00:34:12;;;;;;;12.75;9.13;;;;;;;13.68;100.00;99494.28;5067671;28;20411;-19
2023/05/18 00:36:38;;;;;;;16.35;9.23;;;;;;;13.78;100.00;99497.06;5067554;28;20017;-19
2023/05/18 00:39:05;;;;;;;19.02;10.05;;;;;;;13.71;100.00;99497.28;5067421;28;20032;-20
2023/05/18 00:41:31;;;;;;;13.77;9.73;;;;;;;13.73;100.00;99502.34;5067625;28;20541;-19
2023/05/18 00:43:57;;;;;;;15.20;10.02;;;;;;;13.63;100.00;99490.50;5067133;28;20076;-19
2023/05/18 00:46:24;;;;;;;15.90;10.52;;;;;;;13.92;100.00;99506.31;5067506;28;20052;-21
2023/05/18 00:48:51;;;;;;;17.00;10.90;;;;;;;14.10;100.00;99496.25;5067589;28;20025;-18
2023/05/18 00:51:24;;;;;;;17.13;11.07;;;;;;;14.06;100.00;99514.75;5067147;28;20028;-19
2023/05/18 00:53:52;;;;;;;17.92;11.27;;;;;;;14.00;100.00;99499.69;5067177;28;20048;-19
2023/05/18 00:56:22;;;;;;;18.67;11.10;;;;;;;14.05;100.00;99516.59;5067272;28;20492;-19
2023/05/18 00:58:51;;;;;;;15.50;10.48;;;;;;;13.94;100.00;99504.19;5067604;28;20071;-18
2023/05/18 01:01:18;;;;;;;14.75;10.75;;;;;;;13.86;100.00;99510.78;5066616;28;20127;-19
2023/05/18 01:03:43;;;;;;;16.75;12.18;;;;;;;13.89;100.00;99504.13;5066893;28;20415;-19
2023/05/18 01:06:11;;;;;;;18.48;11.93;;;;;;;14.16;100.00;99508.63;5066923;28;20021;-20
2023/05/18 01:08:37;;;;;;;17.30;12.15;;;;;;;14.29;100.00;99502.84;5067113;28;20033;-19
2023/05/18 01:11:40;;;;;;;14.65;10.35;;;;;;;14.33;100.00;99509.31;5066567;28;20618;-19
2023/05/18 01:14:23;;;;;;;16.40;11.20;;;;;;;14.03;100.00;99505.31;5066865;28;20032;-20
2023/05/18 01:16:55;;;;;;;17.73;10.25;;;;;;;13.89;100.00;99514.84;5066992;28;20029;-20
2023/05/18 01:19:43;;;;;;;17.05;10.13;;;;;;;13.90;100.00;99508.44;5048917;28;20047;-19
2023/05/18 01:22:32;;;;;;;15.93;10.13;;;;;;;13.93;100.00;99507.91;5066778;28;20039;-19
2023/05/18 01:25:03;;;;;;;15.43;8.40;;;;;;;13.76;100.00;99499.19;5066770;28;20028;-19
2023/05/18 01:27:36;;;;;;;13.25;8.20;;;;;;;13.79;100.00;99488.78;5066931;28;20127;-19
2023/05/18 01:30:03;;;;;;;12.52;7.35;;;;;;;13.66;100.00;99500.69;5066531;28;20107;-19
2023/05/18 01:32:28;;;;;;;10.30;6.63;;;;;;;13.59;100.00;99496.63;5066557;28;20024;-20
2023/05/18 01:34:53;;;;;;;9.20;6.03;;;;;;;13.75;100.00;99494.88;5066578;28;20097;-19
2023/05/18 01:37:19;;;;;;;10.10;5.60;;;;;;;13.92;100.00;99505.50;5066591;28;20025;-22
2023/05/18 01:39:44;;;;;;;13.27;5.65;;;;;;;13.81;100.00;99501.91;5066672;28;20021;-19
2023/05/18 01:42:23;;;;;;;9.00;5.05;;;;;;;13.76;100.00;99501.88;5066227;28;20028;-19
2023/05/18 01:45:04;;;;;;;11.60;5.30;;;;;;;13.53;100.00;99503.78;5066502;28;20020;-19
2023/05/18 01:47:32;;;;;;;8.15;4.72;;;;;;;13.63;100.00;99503.88;5066462;28;20040;-19
2023/05/18 01:50:24;;;;;;;9.60;5.43;;;;;;;13.73;100.00;99521.94;5066671;28;20025;-19
2023/05/18 01:53:16;;;;;;;9.63;5.75;;;;;;;13.78;100.00;99521.19;5064281;28;20132;-18
2023/05/18 01:55:44;;;;;;;8.18;5.25;;;;;;;13.90;100.00;99515.66;5066548;28;20038;-19
2023/05/18 01:58:12;;;;;;;8.63;5.25;;;;;;;13.97;100.00;99513.56;5066345;28;20434;-19
2023/05/18 02:00:38;;;;;;;9.45;5.40;;;;;;;13.97;100.00;99518.94;5066519;28;20043;-18
2023/05/18 02:03:04;;;;;;;10.68;5.63;;;;;;;14.14;100.00;99518.81;5066387;28;20107;-18
2023/05/18 02:05:29;;;;;;;10.38;5.78;;;;;;;14.08;100.00;99509.94;5066542;28;20470;-19
2023/05/18 02:07:56;;;;;;;13.20;5.63;;;;;;;14.16;100.00;99522.03;5066441;28;20029;-19
2023/05/18 02:10:21;;;;;;;10.80;6.45;;;;;;;14.32;100.00;99536.38;5066371;28;20029;-21
2023/05/18 02:12:51;;;;;;;14.63;6.28;;;;;;;14.23;100.00;99523.44;5067259;28;20023;-20
2023/05/18 02:15:17;;;;;;;12.50;7.00;;;;;;;14.24;100.00;99530.44;5070117;28;20035;-19
2023/05/18 02:17:42;;;;;;;10.80;6.82;;;;;;;14.21;100.00;99540.88;5070354;28;20107;-21
2023/05/18 02:20:08;;;;;;;13.20;6.60;;;;;;;14.15;100.00;99526.59;5070207;28;20027;-19
2023/05/18 02:22:35;;;;;;;11.35;6.63;;;;;;;14.22;100.00;99542.47;5070204;28;20067;-19
2023/05/18 02:25:01;;;;;;;10.05;5.53;;;;;;;14.20;100.00;99534.69;5069936;28;20025;-20
2023/05/18 02:27:27;;;;;;;10.07;5.13;;;;;;;14.19;100.00;99540.31;5070085;28;20108;-19
2023/05/18 02:29:53;;;;;;;14.43;5.80;;;;;;;14.25;100.00;99536.59;5070316;28;20700;-22
2023/05/18 02:32:19;;;;;;;10.48;5.43;;;;;;;14.19;100.00;99540.31;5069846;28;20033;-19
2023/05/18 02:34:45;;;;;;;9.70;5.50;;;;;;;14.22;100.00;99542.47;5069958;28;20020;-19
2023/05/18 02:37:12;;;;;;;10.95;4.85;;;;;;;13.99;100.00;99552.47;5069892;28;20532;-19
2023/05/18 02:39:37;;;;;;;9.48;5.20;;;;;;;14.00;100.00;99547.94;5069845;28;20025;-19
2023/05/18 02:42:03;;;;;;;8.70;4.97;;;;;;;14.20;100.00;99558.00;5069578;28;20640;-19
2023/05/18 02:44:28;;;;;;;8.90;4.80;;;;;;;14.13;100.00;99554.75;5069691;28;20433;-18
2023/05/18 02:46:54;;;;;;;11.73;5.25;;;;;;;14.25;100.00;99563.44;5069563;28;20028;-20
2023/05/18 02:49:19;;;;;;;9.05;4.90;;;;;;;14.21;100.00;99567.69;5069864;28;20024;-19
2023/05/18 02:51:45;;;;;;;8.60;4.70;;;;;;;14.31;100.00;99566.97;5069427;28;20036;-18
2023/05/18 02:54:10;;;;;;;8.48;4.30;;;;;;;14.06;100.00;99560.31;5069047;28;20422;-18
2023/05/18 02:56:37;;;;;;;11.15;4.53;;;;;;;14.05;100.00;99564.03;5069484;28;20404;-19
2023/05/18 02:59:03;;;;;;;10.55;4.50;;;;;;;13.94;100.00;99562.34;5069297;28;20033;-19
2023/05/18 03:01:28;;;;;;;9.65;4.53;;;;;;;14.01;100.00;99568.28;5069375;28;20039;-21
2023/05/18 03:03:58;;;;;;;8.50;4.18;;;;;;;13.99;100.00;99571.22;5069300;28;20028;-25
2023/05/18 03:06:25;;;;;;;7.13;4.40;;;;;;;13.95;100.00;99567.44;5069547;28;20024;-19
2023/05/18 03:08:54;;;;;;;10.80;4.55;;;;;;;13.99;100.00;99571.22;5069064;28;20028;-20
2023/05/18 03:11:23;;;;;;;7.10;4.30;;;;;;;13.96;100.00;99582.47;5069300;28;20055;-21
2023/05/18 03:13:49;;;;;;;10.27;4.70;;;;;;;13.86;100.00;99569.75;5069150;28;20025;-21
2023/05/18 03:16:14;;;;;;;10.48;3.97;;;;;;;13.95;100.00;99586.19;5069222;28;20051;-18
2023/05/18 03:18:40;;;;;;;8.68;4.50;;;;;;;13.85;100.00;99580.72;5068933;28;20039;-19
2023/05/18 03:21:06;;;;;;;7.18;4.18;;;;;;;14.01;100.00;99595.91;5068944;28;20101;-19
2023/05/18 03:23:33;;;;;;;9.30;5.00;;;;;;;14.07;100.00;99600.25;5068692;28;20024;-18
2023/05/18 03:26:01;;;;;;;8.75;4.97;;;;;;;13.95;100.00;99596.91;5068973;28;20055;-19
2023/05/18 03:28:30;;;;;;;8.55;4.63;;;;;;;13.92;100.00;99594.75;5068953;28;20689;-19
2023/05/18 03:30:55;;;;;;;8.80;5.03;;;;;;;13.84;100.00;99589.84;5068569;28;20021;-20
2023/05/18 03:33:21;;;;;;;8.07;4.60;;;;;;;13.86;100.00;99606.50;5051128;28;20020;-20
2023/05/18 03:35:47;;;;;;;8.35;5.30;;;;;;;13.83;100.00;99593.56;5068791;28;20499;-20
2023/05/18 03:38:13;;;;;;;10.65;6.10;;;;;;;13.97;100.00;99610.06;5068743;28;20039;-20
2023/05/18 03:40:38;;;;;;;10.98;6.03;;;;;;;13.87;100.00;99616.13;5068504;28;20028;-19
2023/05/18 03:43:04;;;;;;;9.50;5.95;;;;;;;13.79;100.00;99614.72;5068555;28;20029;-19
2023/05/18 03:45:29;;;;;;;9.30;6.10;;;;;;;13.93;100.00;99612.44;5068718;28;20045;-19
2023/05/18 03:47:55;;;;;;;11.65;5.82;;;;;;;13.99;100.00;99611.44;5068322;28;20031;-21
2023/05/18 03:50:20;;;;;;;9.38;5.75;;;;;;;13.93;100.00;99614.31;5068668;28;20021;-20
2023/05/18 03:52:46;;;;;;;8.57;5.47;;;;;;;13.93;100.00;99609.75;5067962;28;20063;-19
2023/05/18 03:55:11;;;;;;;10.45;5.72;;;;;;;14.04;100.00;99621.44;5068481;28;20039;-19
2023/05/18 03:57:37;;;;;;;13.20;7.65;;;;;;;14.00;100.00;99621.13;5068241;28;20032;-19
2023/05/18 04:00:08;;;;;;;17.42;9.60;;;;;;;13.90;100.00;99607.59;5068147;28;20029;-19
2023/05/18 04:02:33;;;;;;;19.42;10.23;;;;;;;13.98;100.00;99617.88;5068226;28;20055;-19
2023/05/18 04:04:59;;;;;;;17.10;8.43;;;;;;;14.09;100.00;99636.75;5068070;28;20024;-19
2023/05/18 04:07:25;;;;;;;17.73;9.48;;;;;;;14.05;100.00;99637.25;5068263;28;20052;-25
2023/05/18 04:09:51;;;;;;;15.35;9.43;;;;;;;13.95;100.00;99644.38;5068299;28;20058;-19
2023/05/18 04:12:16;;;;;;;21.23;11.20;;;;;;;14.05;100.00;99642.59;5050010;28;20032;-19
2023/05/18 04:14:42;;;;;;;21.30;10.55;;;;;;;14.00;100.00;99639.88;5067774;28;21099;-20
2023/05/18 04:17:08;;;;;;;25.58;14.00;;;;;;;14.09;100.00;99639.44;5068077;28;20020;-20
2023/05/18 04:19:35;;;;;;;20.40;13.63;;;;;;;14.18;100.00;99637.91;5067661;28;20028;-19
2023/05/18 04:22:03;;;;;;;16.98;11.27;;;;;;;13.95;100.00;99629.09;5067846;28;20055;-19
2023/05/18 04:24:31;;;;;;;16.77;11.52;;;;;;;14.12;100.00;99634.38;5067802;28;20047;-19
2023/05/18 04:26:58;;;;;;;18.45;9.80;;;;;;;14.11;100.00;99637.31;5067787;28;20108;-23
2023/05/18 04:29:23;;;;;;;14.23;8.48;;;;;;;14.14;100.00;99642.97;5067783;28;20035;-19
2023/05/18 04:31:49;;;;;;;14.00;8.00;;;;;;;14.22;100.00;99636.34;5067650;28;20028;-20
2023/05/18 04:34:16;;;;;;;15.95;8.27;;;;;;;14.37;100.00;99647.22;5067581;28;20115;-20
2023/05/18 04:36:43;;;;;;;13.97;8.27;;;;;;;14.43;100.00;99646.22;5066645;28;20024;-19
2023/05/18 04:39:09;;;;;;;13.32;9.00;;;;;;;14.44;100.00;99647.84;5067453;28;20123;-20
2023/05/18 04:41:35;;;;;;;14.30;8.65;;;;;;;14.59;100.00;99641.00;5067366;28;20044;-19
2023/05/18 04:44:02;;;;;;;13.15;7.30;;;;;;;14.53;100.00;99650.06;5067340;28;20021;-19
2023/05/18 04:46:27;;;;;;;15.13;7.55;;;;;;;14.66;100.00;99650.44;5067451;28;20032;-19
2023/05/18 04:48:56;;;;;;;10.55;7.20;;;;;;;14.59;100.00;99643.69;5067183;28;20498;-19
2023/05/18 04:51:23;;;;;;;8.68;6.53;;;;;;;14.41;100.00;99652.91;5067434;28;20024;-19
2023/05/18 04:53:51;;;;;;;12.32;7.15;;;;;;;14.47;100.00;99650.00;5067282;28;20045;-19
2023/05/18 04:56:21;;;;;;;14.60;7.88;;;;;;;14.57;100.00;99661.94;5067097;28;20020;-19
2023/05/18 04:58:47;;;;;;;11.77;7.15;;;;;;;14.65;100.00;99664.16;5067549;28;20040;-21
2023/05/18 05:01:14;;;;;;;12.77;6.82;;;;;;;14.51;100.00;99658.34;5067057;28;20025;-19
2023/05/18 05:03:43;;;;;;;13.00;6.72;;;;;;;14.37;100.00;99660.63;5067081;28;20029;-18
2023/05/18 05:06:10;;;;;;;10.95;6.85;;;;;;;14.46;100.00;99669.84;5067120;28;20450;-19
2023/05/18 05:08:36;;;;;;;10.40;6.75;;;;;;;14.25;100.00;99676.06;5066714;28;20029;-19
2023/05/18 05:11:03;;;;;;;9.43;6.75;;;;;;;14.49;100.00;99673.09;5066958;28;20036;-19
2023/05/18 05:13:28;;;;;;;13.02;7.03;;;;;;;14.58;100.00;99674.28;5066924;28;20435;-19
2023/05/18 05:15:54;;;;;;;11.23;6.70;;;;;;;14.71;100.00;99679.22;5067104;28;20592;-19
2023/05/18 05:18:20;;;;;;;11.48;7.13;;;;;;;14.76;100.00;99676.56;5066748;28;20503;-18
2023/05/18 05:20:45;;;;;;;11.65;7.07;;;;;;;14.54;100.00;99684.66;5066950;28;20107;-19
2023/05/18 05:23:10;;;;;;;11.52;7.20;;;;;;;14.52;100.00;99681.44;5066820;28;20415;-19
2023/05/18 05:25:36;;;;;;;11.80;6.63;;;;;;;14.57;100.00;99686.09;5066655;28;20044;-19
2023/05/18 05:28:02;;;;;;;8.93;6.10;;;;;;;14.57;100.00;99689.56;5066822;28;20028;-19
2023/05/18 05:30:27;;;;;;;11.57;6.40;;;;;;;14.71;100.00;99687.28;5065655;28;20028;-19
2023/05/18 05:32:53;;;;;;;11.70;6.50;;;;;;;14.80;100.00;99701.03;5065662;28;20047;-19
2023/05/18 05:35:18;;;;;;;13.02;7.22;;;;;;;14.81;100.00;99690.06;5065273;28;20406;-20
2023/05/18 05:37:44;;;;;;;10.88;7.43;;;;;;;14.82;100.00;99697.03;5065575;28;20037;-20
2023/05/18 05:40:10;;;;;;;11.48;7.10;;;;;;;14.90;100.00;99689.59;5065421;28;20099;-18
2023/05/18 05:42:35;;;;;;;9.63;6.45;;;;;;;15.10;100.00;99711.22;5064993;28;20021;-19
2023/05/18 05:45:01;;;;;;;13.85;7.38;;;;;;;15.07;100.00;99706.34;5065465;28;20031;-21
2023/05/18 05:47:26;;;;;;;10.23;6.95;;;;;;;15.05;100.00;99711.16;5065183;28;20032;-19
2023/05/18 05:49:52;;;;;;;12.13;7.30;;;;;;;15.07;100.00;99711.72;5065176;28;20032;-22
2023/05/18 05:52:17;;;;;;;15.68;7.47;;;;;;;15.32;100.00;99710.28;5064920;28;20052;-19
2023/05/18 05:54:43;;;;;;;12.75;7.50;;;;;;;15.44;100.00;99718.94;5065141;28;20028;-19
2023/05/18 05:57:08;;;;;;;11.88;7.38;;;;;;;15.38;100.00;99723.47;5065333;28;20404;-20
2023/05/18 05:59:34;;;;;;;9.65;7.13;;;;;;;15.55;100.00;99728.72;5065346;28;20048;-19
2023/05/18 06:01:59;;;;;;;14.40;8.75;;;;;;;15.81;100.00;99734.25;5065149;28;20021;-20
2023/05/18 06:04:25;;;;;;;14.45;8.88;;;;;;;15.90;100.00;99731.88;5065550;28;20395;-18
2023/05/18 06:06:50;;;;;;;12.85;8.32;;;;;;;15.91;100.00;99744.25;5065009;28;20030;-19
2023/05/18 06:09:16;;;;;;;12.25;7.95;;;;;;;15.83;100.00;99735.63;5064868;28;20078;-19
2023/05/18 06:11:41;;;;;;;14.15;9.02;;;;;;;15.97;100.00;99741.31;5065253;28;20031;-19
2023/05/18 06:14:07;;;;;;;11.18;7.40;;;;;;;15.98;100.00;99748.31;5064844;28;20024;-21
2023/05/18 06:16:32;;;;;;;11.50;7.35;;;;;;;15.87;100.00;99749.31;5064975;28;20086;-19
2023/05/18 06:18:58;;;;;;;11.30;6.68;;;;;;;15.87;100.00;99757.38;5065041;28;20039;-19
2023/05/18 06:21:23;;;;;;;14.15;6.85;;;;;;;16.07;100.00;99756.69;5065381;28;20028;-19
2023/05/18 06:23:49;;;;;;;11.73;7.78;;;;;;;16.25;100.00;99742.75;5066235;28;20078;-19
2023/05/18 06:26:15;;;;;;;14.30;8.85;;;;;;;16.21;100.00;99751.63;5066012;28;20035;-18
2023/05/18 06:28:41;;;;;;;13.30;8.15;;;;;;;16.21;100.00;99759.69;5065894;28;20025;-19
2023/05/18 06:31:06;;;;;;;10.88;7.90;;;;;;;16.48;100.00;99765.69;5065765;28;20033;-19
2023/05/18 06:33:32;;;;;;;13.38;8.77;;;;;;;16.58;100.00;99754.16;5066146;28;20017;-19
2023/05/18 06:35:57;;;;;;;15.68;8.57;;;;;;;16.65;100.00;99760.09;5066153;28;20044;-20
2023/05/18 06:38:22;;;;;;;13.80;9.65;;;;;;;17.02;100.00;99775.25;5075077;28;20020;-19
2023/05/18 06:40:48;;;;;;;14.32;8.85;;;;;;;17.04;100.00;99777.66;5086105;28;20103;-18
2023/05/18 06:43:14;;;;;;;20.38;9.13;;;;;;;16.91;100.00;99772.81;5086266;28;20027;-20
2023/05/18 06:45:39;;;;;;;17.52;10.73;;;;;;;17.00;100.00;99763.94;5086299;28;20028;-19
2023/05/18 06:48:05;;;;;;;14.35;11.38;;;;;;;17.13;100.00;99769.88;5086270;28;20016;-19
2023/05/18 06:50:30;;;;;;;14.57;10.93;;;;;;;17.14;100.00;99785.78;5086103;28;20024;-20
2023/05/18 06:52:56;;;;;;;13.18;11.07;;;;;;;17.09;100.00;99783.06;5086163;28;20044;-19
2023/05/18 06:55:21;;;;;;;13.40;9.98;;;;;;;17.26;100.00;99791.72;5086353;28;20020;-19
2023/05/18 06:57:46;;;;;;;17.90;11.27;;;;;;;17.11;100.00;99790.88;5086136;28;20020;-19
2023/05/18 07:00:12;;;;;;;16.63;9.88;;;;;;;17.20;100.00;99794.66;5089444;28;20016;-19
2023/05/18 07:02:38;;;;;;;11.98;8.82;;;;;;;17.23;100.00;99792.22;5089477;28;20036;-19
2023/05/18 07:05:07;;;;;;;10.73;8.50;;;;;;;17.21;100.00;99804.38;5089884;28;20047;-19
2023/05/18 07:07:35;;;;;;;11.13;8.75;;;;;;;17.49;100.00;99800.31;5089529;28;20046;-19
2023/05/18 07:10:01;;;;;;;10.52;7.25;;;;;;;17.05;100.00;99800.84;5089615;28;20050;-19
2023/05/18 07:12:27;;;;;;;12.52;8.05;;;;;;;17.05;100.00;99798.94;5089601;28;20024;-21
2023/05/18 07:14:52;;;;;;;11.70;7.90;;;;;;;17.10;100.00;99802.72;5089579;28;20093;-19
2023/05/18 07:17:18;;;;;;;12.75;8.45;;;;;;;17.30;100.00;99810.81;5089491;28;20028;-19
2023/05/18 07:19:43;;;;;;;12.63;9.10;;;;;;;17.12;100.00;99790.63;5089197;28;20043;-19
2023/05/18 07:22:08;;;;;;;13.18;8.40;;;;;;;17.08;100.00;99808.41;5089815;28;20081;-20
2023/05/18 07:24:34;;;;;;;14.05;8.63;;;;;;;17.07;100.00;99806.78;5089266;28;20020;-19
2023/05/18 07:27:00;;;;;;;14.30;9.50;;;;;;;17.16;100.00;99810.56;5089400;28;20413;-21
2023/05/18 07:29:25;;;;;;;12.30;8.95;;;;;;;17.14;100.00;99815.41;5089176;28;20115;-19
2023/05/18 07:31:51;;;;;;;12.02;7.88;;;;;;;17.17;100.00;99804.09;5088954;28;20413;-19
2023/05/18 07:34:16;;;;;;;13.43;7.85;;;;;;;17.02;100.00;99822.91;5088999;28;20027;-20
2023/05/18 07:36:42;;;;;;;12.00;7.63;;;;;;;17.09;100.00;99818.09;5088542;28;20110;-23
2023/05/18 07:39:07;;;;;;;13.65;7.43;;;;;;;17.06;100.00;99827.53;5088871;28;20106;-20
2023/05/18 07:41:33;;;;;;;13.07;7.07;;;;;;;17.11;100.00;99831.31;5088395;28;20649;-20
2023/05/18 07:43:59;;;;;;;14.30;7.10;;;;;;;17.09;100.00;99823.47;5081495;28;20028;-24
2023/05/18 07:46:27;;;;;;;11.40;6.88;;;;;;;16.82;100.00;99823.72;5066556;28;20029;-21
2023/05/18 07:48:52;;;;;;;9.57;6.88;;;;;;;17.24;100.00;99812.72;5048826;28;20021;-20
2023/05/18 07:51:17;;;;;;;10.48;6.43;;;;;;;17.53;100.00;99828.34;5048300;28;21033;-19
2023/05/18 07:53:44;;;;;;;11.07;7.63;;;;;;;17.65;100.00;99822.66;5048035;28;20071;-19
2023/05/18 07:56:10;;;;;;;10.38;6.30;;;;;;;17.49;100.00;99829.97;5048113;28;20031;-19
2023/05/18 07:58:35;;;;;;;10.93;6.65;;;;;;;17.69;100.00;99831.81;5048114;28;20021;-19
2023/05/18 08:01:01;;;;;;;10.90;6.70;;;;;;;17.79;100.00;99836.41;5048210;28;20494;-19
2023/05/18 08:03:27;;;;;;;10.00;5.88;;;;;;;17.74;100.00;99842.63;5047920;28;20052;-19
2023/05/18 08:05:52;;;;;;;21.02;7.40;;;;;;;17.89;100.00;99851.81;5030274;28;20021;-20
2023/05/18 08:08:17;;;;;;;14.68;8.70;;;;;;;18.08;100.00;99855.53;5047900;28;21037;-19
2023/05/18 08:10:43;;;;;;;16.88;6.57;;;;;;;17.90;100.00;99848.84;5047657;28;20084;-19
2023/05/18 08:13:09;;;;;;;10.82;6.30;;;;;;;17.89;100.00;99852.59;5047930;28;20053;-19
2023/05/18 08:15:36;;;;;;;10.10;6.70;;;;;;;17.67;100.00;99856.38;5047937;28;20032;-19
2023/05/18 08:18:01;;;;;;;8.75;6.00;;;;;;;17.71;100.00;99863.91;5047923;28;20021;-19
2023/05/18 08:20:30;;;;;;;14.07;7.78;;;;;;;17.68;100.00;99858.00;5047731;28;20074;-20
2023/05/18 08:22:56;;;;;;;11.88;5.45;;;;;;;17.58;100.00;99866.09;5047957;28;20476;-20
2023/05/18 08:25:22;;;;;;;11.05;5.70;;;;;;;17.91;100.00;99866.63;5047531;28;20118;-20
2023/05/18 08:27:48;;;;;;;10.35;5.65;;;;;;;17.91;100.00;99860.44;5047832;28;20041;-20
2023/05/18 08:30:14;;;;;;;13.23;6.93;;;;;;;18.20;100.00;99868.72;5047664;28;20025;-19
2023/05/18 08:32:39;;;;;;;10.10;5.40;;;;;;;18.31;100.00;99864.91;5047492;28;20087;-20
2023/05/18 08:35:07;;;;;;;8.48;5.18;;;;;;;18.12;99.71;99880.06;5046950;28;20021;-20
2023/05/18 08:37:32;;;;;;;7.95;5.72;;;;;;;18.09;100.00;99884.13;5045946;28;20021;-25
2023/05/18 08:40:01;;;;;;;7.88;4.95;;;;;;;17.90;100.00;99870.41;5046225;28;20040;-24
2023/05/18 08:42:38;;;;;;;10.10;5.28;;;;;;;18.22;100.00;99888.16;5045685;28;20032;-19
2023/05/18 08:45:44;;;;;;;8.10;5.03;;;;;;;18.34;100.00;99888.66;5046364;28;20017;-19
2023/05/18 08:48:11;;;;;;;8.45;5.10;;;;;;;18.33;95.94;99894.31;4985583;28;20481;-21
2023/05/18 08:50:40;;;;;;;7.72;4.65;;;;;;;18.30;97.98;99882.19;4984493;28;20034;-19
2023/05/18 08:53:05;;;;;;;11.30;6.20;;;;;;;18.71;96.21;99897.44;5016192;28;20045;-19
2023/05/18 08:55:35;;;;;;;13.40;6.75;;;;;;;18.58;100.00;99896.16;5047142;28;20056;-20
2023/05/18 08:58:02;;;;;;;9.45;5.53;;;;;;;18.73;99.14;99898.75;5047174;28;20542;-19
2023/05/18 09:00:28;;;;;;;8.32;6.22;;;;;;;18.53;92.03;99904.25;5047146;28;20021;-20
2023/05/18 09:02:54;;;;;;;8.95;5.57;;;;;;;18.84;90.92;99903.09;5046972;28;20037;-20
2023/05/18 09:05:21;;;;;;;9.35;5.60;;;;;;;18.62;94.72;99902.63;5046976;28;20032;-19
2023/05/18 09:07:49;;;;;;;9.48;5.38;;;;;;;18.59;97.75;99908.56;5046742;28;20431;-19
2023/05/18 09:10:14;;;;;;;10.63;5.28;;;;;;;18.76;95.04;99914.44;5046903;28;20082;-19
2023/05/18 09:12:42;;;;;;;9.32;5.70;;;;;;;18.95;97.53;99905.72;5046675;28;20441;-19
2023/05/18 09:15:12;;;;;;;7.68;5.53;;;;;;;18.93;92.50;99911.41;5046917;28;20033;-19
2023/05/18 09:17:37;;;;;;;8.10;4.97;;;;;;;19.17;90.62;99914.25;5046388;28;20036;-19
2023/05/18 09:20:06;;;;;;;8.38;5.43;;;;;;;19.10;88.95;99921.06;5046757;28;20020;-23
2023/05/18 09:22:39;;;;;;;9.77;5.07;;;;;;;18.89;87.68;99918.44;5028261;28;20124;-23
2023/05/18 09:25:08;;;;;;;8.75;5.82;;;;;;;18.95;91.55;99920.03;5046924;28;20082;-19
2023/05/18 09:27:33;;;;;;;11.32;5.25;;;;;;;18.80;87.42;99926.34;5046289;28;20119;-19
2023/05/18 09:29:59;;;;;;;8.88;5.38;;;;;;;18.93;89.02;99929.53;5046829;28;20187;-19
2023/05/18 09:32:25;;;;;;;7.03;5.10;;;;;;;18.92;89.31;99927.88;5046224;28;20419;-19
2023/05/18 09:34:52;;;;;;;9.77;5.40;;;;;;;18.75;89.19;99941.72;5046503;28;20021;-19
2023/05/18 09:37:19;;;;;;;7.53;4.65;;;;;;;18.68;91.24;99907.72;5046313;28;20562;-19
2023/05/18 09:39:56;;;;;;;10.63;5.70;;;;;;;18.97;92.53;99928.69;5028826;28;20017;-18
2023/05/18 09:42:26;;;;;;;10.35;5.70;;;;;;;18.95;93.36;99927.34;5046548;28;20298;-22
2023/05/18 09:44:51;;;;;;;9.20;4.93;;;;;;;18.99;93.71;99907.59;5046264;28;20037;-17
2023/05/18 09:47:17;;;;;;;7.15;4.95;;;;;;;19.30;93.27;99933.66;5046522;28;20032;-19
2023/05/18 09:49:42;;;;;;;10.82;5.97;;;;;;;19.12;92.12;99938.59;5046009;28;20392;-20
2023/05/18 09:52:08;;;;;;;9.00;5.63;;;;;;;19.20;91.14;99931.81;5046152;28;20092;-19
2023/05/18 09:54:36;;;;;;;8.95;5.53;;;;;;;18.99;92.90;99934.63;5046746;28;20029;-18
2023/05/18 09:57:02;;;;;;;9.23;5.60;;;;;;;19.19;91.79;99936.41;5046417;28;20055;-20
2023/05/18 09:59:28;;;;;;;9.30;5.60;;;;;;;19.04;94.85;99921.09;5046187;28;20033;-19
2023/05/18 10:02:01;;;;;;;10.48;6.00;;;;;;;19.05;95.51;99933.50;5045942;28;20324;-19
2023/05/18 10:04:41;;;;;;;8.45;4.88;;;;;;;19.23;91.91;99928.56;5046172;28;20028;-20
2023/05/18 10:07:14;;;;;;;11.68;5.75;;;;;;;19.35;90.88;99928.19;5046378;28;20024;-19
2023/05/18 10:09:41;;;;;;;9.80;5.82;;;;;;;19.30;94.92;99933.66;5046221;28;20047;-19
2023/05/18 10:12:14;;;;;;;8.75;4.93;;;;;;;19.48;93.22;99935.69;5046214;28;20025;-21
2023/05/18 10:14:44;;;;;;;8.98;5.80;;;;;;;19.50;96.57;99944.31;5046150;28;20028;-21
2023/05/18 10:17:14;;;;;;;8.07;5.10;;;;;;;19.56;92.96;99935.09;5046244;28;20029;-19
2023/05/18 10:19:41;;;;;;;10.93;5.65;;;;;;;19.53;95.37;99932.94;5028524;28;20036;-20
2023/05/18 10:22:08;;;;;;;9.52;5.25;;;;;;;19.41;91.56;99935.19;5046096;28;20025;-21
2023/05/18 10:24:37;;;;;;;10.33;5.70;;;;;;;19.35;92.83;99920.06;5046304;28;20040;-19
2023/05/18 10:27:06;;;;;;;7.55;5.07;;;;;;;19.25;92.99;99916.38;5046310;28;20120;-20
2023/05/18 10:29:33;;;;;;;7.30;4.65;;;;;;;19.01;90.03;99926.25;5046164;28;20078;-21
2023/05/18 10:32:02;;;;;;;8.60;4.82;;;;;;;19.09;92.44;99939.16;5046002;28;20029;-19
2023/05/18 10:34:28;;;;;;;9.43;4.63;;;;;;;18.99;91.94;99923.81;5048186;28;20082;-25
2023/05/18 10:36:56;;;;;;;10.05;5.25;;;;;;;18.99;92.87;99918.41;5049468;28;20029;-20
2023/05/18 10:39:23;;;;;;;10.57;5.28;;;;;;;19.19;97.73;99939.13;5049808;28;20021;-19
2023/05/18 10:41:53;;;;;;;7.57;4.30;;;;;;;19.46;89.39;99940.56;5049657;28;20061;-20
2023/05/18 10:44:20;;;;;;;7.65;4.28;;;;;;;19.21;88.56;99936.94;5050197;28;20024;-19
2023/05/18 10:46:45;;;;;;;6.75;4.00;;;;;;;19.08;91.77;99940.25;5049710;28;20025;-19
2023/05/18 10:49:15;;;;;;;5.38;3.90;;;;;;;19.08;83.48;99942.94;5049506;28;20024;-19
2023/05/18 10:51:45;;;;;;;7.57;3.97;;;;;;;19.04;87.94;99947.28;5049257;28;20571;-19
2023/05/18 10:54:13;;;;;;;6.68;3.10;;;;;;;19.12;78.47;99946.72;5029882;28;20095;-19
2023/05/18 10:56:46;;;;;;;5.65;3.22;;;;;;;19.28;79.12;99932.00;5029674;28;20025;-19
2023/05/18 10:59:13;;;;;;;9.40;4.28;;;;;;;19.23;84.01;99953.69;5029602;28;20101;-19
2023/05/18 11:01:40;;;;;;;7.07;3.90;;;;;;;19.01;85.76;99935.16;5029296;28;20045;-20
2023/05/18 11:04:06;;;;;;;12.13;4.43;;;;;;;19.13;90.36;99953.75;5029319;28;20029;-20
2023/05/18 11:06:33;;;;;;;7.57;4.90;;;;;;;19.04;94.68;99947.28;5029702;28;20029;-20
2023/05/18 11:09:00;;;;;;;8.53;4.47;;;;;;;19.12;89.86;99965.63;5029616;28;20064;-19
2023/05/18 11:11:28;;;;;;;8.50;3.88;;;;;;;19.24;87.55;99958.00;5029179;28;20409;-19
2023/05/18 11:14:00;;;;;;;7.40;3.83;;;;;;;19.15;89.80;99959.69;5029302;28;20087;-20
2023/05/18 11:16:34;;;;;;;9.00;4.20;;;;;;;19.33;89.19;99965.50;5029242;28;20026;-19
2023/05/18 11:19:08;;;;;;;7.63;4.68;;;;;;;19.18;92.68;99964.50;5029118;28;20025;-19
2023/05/18 11:21:34;;;;;;;9.00;5.13;;;;;;;18.85;98.41;99966.81;5029227;28;20052;-19